Time;durP1;ratioP1;P1;durP2;ratioP2;P2;SDS_P1;SDS_P2;PMS_P1;PMS_P2;Temp;Humidity;BMP_temperature;BMP_pressure;BME280_temperature;BME280_humidity;BME280_pressure;Samples;Min_cycle;Max_cycle;Signal;HPM_P1;HPM_P2
2021/07/29 00:02:20;;;;;;;44.33;5.85;;;;;;;;;;4991894;28;20026;-42
2021/07/29 00:04:48;;;;;;;48.25;6.03;;;;;;;;;;4987272;28;20030;-42
2021/07/29 00:07:15;;;;;;;54.95;7.13;;;;;;;;;;4991063;28;20441;-42
2021/07/29 00:09:46;;;;;;;44.63;6.43;;;;;;;;;;4989237;28;20483;-40
2021/07/29 00:12:13;;;;;;;46.45;5.45;;;;;;;;;;4990549;28;20045;-41
2021/07/29 00:14:40;;;;;;;42.15;5.30;;;;;;;;;;4989988;28;20038;-42
2021/07/29 00:17:16;;;;;;;52.88;5.88;;;;;;;;;;4990226;28;20061;-39
2021/07/29 00:19:44;;;;;;;36.78;6.07;;;;;;;;;;4984783;28;20030;-42
2021/07/29 00:22:11;;;;;;;53.88;7.25;;;;;;;;;;4987837;28;20023;-46
2021/07/29 00:24:38;;;;;;;40.58;6.53;;;;;;;;;;4983381;28;20018;-41
2021/07/29 00:27:05;;;;;;;52.17;6.72;;;;;;;;;;4986908;28;20034;-41
2021/07/29 00:29:32;;;;;;;48.25;6.18;;;;;;;;;;4992922;28;20383;-41
2021/07/29 00:32:00;;;;;;;46.95;6.47;;;;;;;;;;4992840;28;20026;-44
2021/07/29 00:34:27;;;;;;;53.35;5.20;;;;;;;;;;4992732;28;20030;-49
2021/07/29 00:36:54;;;;;;;37.38;5.28;;;;;;;;;;4993129;28;20014;-46
2021/07/29 00:39:21;;;;;;;37.10;6.38;;;;;;;;;;4993209;28;20018;-45
2021/07/29 00:41:51;;;;;;;41.95;5.43;;;;;;;;;;4992696;28;20046;-46
2021/07/29 00:44:18;;;;;;;39.78;6.05;;;;;;;;;;4992803;28;20022;-47
2021/07/29 00:46:45;;;;;;;42.30;5.57;;;;;;;;;;4992811;28;20026;-45
2021/07/29 00:49:13;;;;;;;38.42;5.68;;;;;;;;;;4992491;28;20026;-45
2021/07/29 00:51:41;;;;;;;40.45;6.75;;;;;;;;;;4992803;28;20054;-47
2021/07/29 00:54:09;;;;;;;38.17;5.85;;;;;;;;;;4992403;28;20459;-46
2021/07/29 00:56:37;;;;;;;55.40;5.70;;;;;;;;;;4990674;28;20034;-44
2021/07/29 00:59:04;;;;;;;41.55;5.90;;;;;;;;;;4991193;28;20026;-45
2021/07/29 01:01:31;;;;;;;52.28;6.25;;;;;;;;;;4987157;28;20022;-49
2021/07/29 01:03:58;;;;;;;53.70;5.90;;;;;;;;;;4992377;28;20025;-45
2021/07/29 01:06:25;;;;;;;57.20;6.32;;;;;;;;;;4990109;28;20050;-45
2021/07/29 01:09:09;;;;;;;42.80;5.82;;;;;;;;;;4989366;28;20431;-48
2021/07/29 01:11:36;;;;;;;39.45;5.45;;;;;;;;;;4988826;28;20109;-43
2021/07/29 01:14:03;;;;;;;33.03;5.35;;;;;;;;;;4990678;28;20022;-41
2021/07/29 01:16:31;;;;;;;37.58;5.13;;;;;;;;;;4987788;28;20031;-40
2021/07/29 01:18:58;;;;;;;34.58;5.72;;;;;;;;;;4989770;28;20057;-40
2021/07/29 01:21:29;;;;;;;38.97;5.88;;;;;;;;;;4987847;28;20038;-44
2021/07/29 01:23:56;;;;;;;32.10;5.60;;;;;;;;;;4992034;28;20027;-45
2021/07/29 01:26:24;;;;;;;27.88;5.07;;;;;;;;;;4988808;28;20026;-42
2021/07/29 01:28:51;;;;;;;38.92;4.50;;;;;;;;;;4987125;28;20030;-46
2021/07/29 01:31:18;;;;;;;32.55;5.18;;;;;;;;;;4988944;28;20128;-44
2021/07/29 01:33:46;;;;;;;33.08;5.55;;;;;;;;;;4989916;28;20026;-41
2021/07/29 01:36:13;;;;;;;21.77;4.53;;;;;;;;;;4989917;28;20022;-40
2021/07/29 01:38:40;;;;;;;34.17;4.60;;;;;;;;;;4987652;28;20113;-44
2021/07/29 01:41:08;;;;;;;58.95;5.88;;;;;;;;;;4989084;28;20061;-43
2021/07/29 01:43:35;;;;;;;38.15;5.20;;;;;;;;;;4988872;28;20049;-44
2021/07/29 01:46:02;;;;;;;36.22;5.85;;;;;;;;;;4988616;28;20068;-44
2021/07/29 01:48:31;;;;;;;36.25;5.28;;;;;;;;;;4987490;28;20359;-46
2021/07/29 01:50:58;;;;;;;31.65;5.03;;;;;;;;;;4986314;28;20123;-48
2021/07/29 01:53:25;;;;;;;33.72;5.05;;;;;;;;;;4987224;28;20379;-46
2021/07/29 01:55:52;;;;;;;42.17;4.75;;;;;;;;;;4987683;28;20518;-49
2021/07/29 01:58:19;;;;;;;29.30;4.68;;;;;;;;;;4987738;28;20018;-45
2021/07/29 02:00:48;;;;;;;27.10;4.35;;;;;;;;;;4986989;28;20604;-43
2021/07/29 02:03:15;;;;;;;28.42;4.50;;;;;;;;;;4989749;28;20561;-45
2021/07/29 02:05:42;;;;;;;25.13;4.10;;;;;;;;;;4991025;28;20081;-44
2021/07/29 02:08:09;;;;;;;29.45;4.03;;;;;;;;;;4985933;28;20033;-47
2021/07/29 02:10:36;;;;;;;25.13;3.42;;;;;;;;;;4986376;28;20394;-47
2021/07/29 02:13:04;;;;;;;21.30;3.83;;;;;;;;;;4984227;28;20014;-43
2021/07/29 02:15:31;;;;;;;28.38;4.40;;;;;;;;;;4985674;28;20088;-43
2021/07/29 02:17:59;;;;;;;15.50;3.45;;;;;;;;;;4985981;28;20074;-45
2021/07/29 02:20:26;;;;;;;18.92;3.95;;;;;;;;;;4978376;28;20030;-44
2021/07/29 02:22:53;;;;;;;25.60;3.63;;;;;;;;;;4990234;28;20053;-43
2021/07/29 02:25:20;;;;;;;27.20;3.83;;;;;;;;;;4990373;28;20077;-45
2021/07/29 02:27:47;;;;;;;20.88;4.38;;;;;;;;;;4990543;28;20041;-45
2021/07/29 02:30:15;;;;;;;27.35;4.05;;;;;;;;;;4989490;28;20084;-45
2021/07/29 02:32:42;;;;;;;24.67;3.80;;;;;;;;;;4990465;28;20035;-44
2021/07/29 02:35:09;;;;;;;19.48;3.88;;;;;;;;;;4988197;28;20026;-45
2021/07/29 02:37:36;;;;;;;15.68;3.03;;;;;;;;;;4988976;28;20058;-44
2021/07/29 02:40:04;;;;;;;25.27;3.85;;;;;;;;;;4987371;28;20018;-45
2021/07/29 02:42:31;;;;;;;29.33;3.40;;;;;;;;;;4984381;28;20133;-43
2021/07/29 02:44:58;;;;;;;31.05;3.85;;;;;;;;;;4989295;28;20030;-44
2021/07/29 02:47:25;;;;;;;19.98;4.00;;;;;;;;;;4986782;28;20026;-44
2021/07/29 02:49:52;;;;;;;27.30;3.65;;;;;;;;;;4988806;28;20057;-45
2021/07/29 02:52:19;;;;;;;31.45;3.95;;;;;;;;;;4986870;28;20019;-46
2021/07/29 02:54:47;;;;;;;19.65;3.05;;;;;;;;;;4981281;28;20031;-45
2021/07/29 02:57:15;;;;;;;18.67;3.28;;;;;;;;;;4988992;28;20057;-45
2021/07/29 02:59:43;;;;;;;14.90;2.83;;;;;;;;;;4982490;28;20015;-44
2021/07/29 03:02:11;;;;;;;24.05;3.33;;;;;;;;;;4988913;28;20033;-45
2021/07/29 03:04:42;;;;;;;17.75;3.30;;;;;;;;;;4990608;28;20164;-51
2021/07/29 03:07:11;;;;;;;;;;;;;;;;;;4989734;28;20080;-45
2021/07/29 03:09:43;;;;;;;22.90;3.53;;;;;;;;;;4989918;28;19921;-48
2021/07/29 03:12:16;;;;;;;20.23;3.45;;;;;;;;;;4989052;28;20029;-54
2021/07/29 03:14:48;;;;;;;16.45;2.70;;;;;;;;;;4987549;28;20466;-45
2021/07/29 03:17:22;;;;;;;15.45;2.75;;;;;;;;;;4988653;28;20394;-44
2021/07/29 03:19:54;;;;;;;16.23;2.67;;;;;;;;;;4985600;28;20026;-52
2021/07/29 03:22:27;;;;;;;17.15;3.47;;;;;;;;;;4989486;28;20065;-44
2021/07/29 03:24:58;;;;;;;18.67;3.00;;;;;;;;;;4990002;28;20041;-46
2021/07/29 03:27:28;;;;;;;15.98;2.35;;;;;;;;;;4988174;28;20080;-49
2021/07/29 03:29:58;;;;;;;16.92;2.45;;;;;;;;;;4988731;28;20046;-48
2021/07/29 03:32:31;;;;;;;19.17;2.65;;;;;;;;;;4993042;28;20049;-49
2021/07/29 03:35:03;;;;;;;23.05;2.75;;;;;;;;;;4992066;28;20038;-44
2021/07/29 03:37:36;;;;;;;15.43;2.45;;;;;;;;;;4991000;28;20535;-43
2021/07/29 03:40:07;;;;;;;10.35;2.10;;;;;;;;;;4989613;28;20073;-42
2021/07/29 03:42:38;;;;;;;13.83;1.97;;;;;;;;;;4991638;28;20042;-43
2021/07/29 03:45:07;;;;;;;11.95;2.45;;;;;;;;;;4991745;28;20022;-43
2021/07/29 03:47:37;;;;;;;10.73;1.90;;;;;;;;;;4991795;28;20030;-43
2021/07/29 03:50:08;;;;;;;14.70;2.88;;;;;;;;;;4990329;28;20041;-43
2021/07/29 03:52:41;;;;;;;17.70;2.42;;;;;;;;;;4991280;28;20506;-43
2021/07/29 03:55:11;;;;;;;16.45;2.80;;;;;;;;;;4992243;28;20042;-44
2021/07/29 03:57:43;;;;;;;16.33;3.03;;;;;;;;;;4995143;28;20061;-44
2021/07/29 04:00:14;;;;;;;19.95;3.03;;;;;;;;;;4994777;28;20470;-44
2021/07/29 04:02:45;;;;;;;11.45;2.35;;;;;;;;;;4994062;28;20026;-43
2021/07/29 04:05:16;;;;;;;10.20;2.83;;;;;;;;;;4994671;28;20023;-44
2021/07/29 04:07:48;;;;;;;20.40;2.20;;;;;;;;;;4994680;28;20048;-44
2021/07/29 04:10:20;;;;;;;13.80;2.40;;;;;;;;;;4994480;28;20402;-45
2021/07/29 04:12:49;;;;;;;;;;;;;;;;;;4995273;28;20022;-47
2021/07/29 04:15:20;;;;;;;12.40;2.22;;;;;;;;;;4994524;28;19905;-43
2021/07/29 04:17:51;;;;;;;11.80;2.03;;;;;;;;;;4993879;28;20220;-47
2021/07/29 04:20:24;;;;;;;12.95;2.60;;;;;;;;;;4994918;28;20062;-44
2021/07/29 04:22:55;;;;;;;7.63;2.10;;;;;;;;;;4994897;28;20022;-44
2021/07/29 04:25:26;;;;;;;10.75;2.05;;;;;;;;;;4994956;28;20048;-46
2021/07/29 04:27:59;;;;;;;8.00;2.00;;;;;;;;;;4994606;28;20033;-43
2021/07/29 04:30:30;;;;;;;7.82;1.60;;;;;;;;;;4993863;28;20121;-47
2021/07/29 04:33:02;;;;;;;7.50;1.60;;;;;;;;;;4994657;28;20022;-44
2021/07/29 04:35:31;;;;;;;;;;;;;;;;;;4994968;28;20031;-44
2021/07/29 04:38:03;;;;;;;12.00;1.92;;;;;;;;;;4993456;28;19914;-44
2021/07/29 04:40:35;;;;;;;14.05;1.80;;;;;;;;;;5013388;28;20058;-43
2021/07/29 04:43:06;;;;;;;11.45;1.63;;;;;;;;;;5013516;28;20028;-45
2021/07/29 04:45:34;;;;;;;5.45;1.65;;;;;;;;;;5013713;28;20033;-45
2021/07/29 04:48:01;;;;;;;6.20;1.50;;;;;;;;;;5012523;28;20026;-45
2021/07/29 04:50:31;;;;;;;8.25;2.00;;;;;;;;;;5013448;28;20034;-43
2021/07/29 04:53:04;;;;;;;16.50;1.90;;;;;;;;;;5013698;28;20022;-43
2021/07/29 04:55:32;;;;;;;;;;;;;;;;;;4994242;28;20019;-44
2021/07/29 04:58:08;;;;;;;5.68;1.60;;;;;;;;;;4982989;28;19906;-42
2021/07/29 05:00:40;;;;;;;7.45;1.42;;;;;;;;;;5002085;28;20262;-42
2021/07/29 05:03:11;;;;;;;8.13;1.83;;;;;;;;;;5013376;28;20025;-42
2021/07/29 05:05:43;;;;;;;8.52;1.42;;;;;;;;;;5013053;28;20531;-43
2021/07/29 05:08:15;;;;;;;5.80;1.20;;;;;;;;;;5011550;28;20025;-42
2021/07/29 05:10:46;;;;;;;8.68;1.58;;;;;;;;;;5013033;28;20069;-42
2021/07/29 05:13:18;;;;;;;7.38;1.55;;;;;;;;;;5012968;28;20025;-42
2021/07/29 05:15:46;;;;;;;4.55;1.23;;;;;;;;;;5013163;28;20028;-42
2021/07/29 05:18:16;;;;;;;5.68;1.23;;;;;;;;;;5011457;28;20052;-42
2021/07/29 05:20:48;;;;;;;12.52;1.50;;;;;;;;;;5012547;28;20052;-42
2021/07/29 05:23:20;;;;;;;7.03;1.30;;;;;;;;;;4993603;28;20021;-43
2021/07/29 05:25:52;;;;;;;9.95;1.27;;;;;;;;;;4993492;28;20056;-43
2021/07/29 05:28:22;;;;;;;4.72;1.30;;;;;;;;;;4993476;28;20065;-43
2021/07/29 05:30:55;;;;;;;8.80;1.30;;;;;;;;;;4993399;28;20478;-43
2021/07/29 05:33:27;;;;;;;8.00;1.35;;;;;;;;;;4993294;28;20033;-42
2021/07/29 05:36:00;;;;;;;4.88;1.33;;;;;;;;;;4993338;28;20035;-43
2021/07/29 05:38:28;;;;;;;;;;;;;;;;;;4993544;28;20014;-46
2021/07/29 05:40:59;;;;;;;4.95;1.10;;;;;;;;;;4993198;28;20276;-43
2021/07/29 05:43:26;;;;;;;3.33;1.02;;;;;;;;;;4993007;28;20026;-43
2021/07/29 05:45:54;;;;;;;6.05;1.10;;;;;;;;;;4992858;28;20061;-42
2021/07/29 05:48:21;;;;;;;5.05;1.20;;;;;;;;;;4992955;28;20092;-42
2021/07/29 05:50:48;;;;;;;6.50;0.90;;;;;;;;;;4987802;28;20038;-44
2021/07/29 05:53:15;;;;;;;5.15;1.10;;;;;;;;;;4990065;28;20102;-43
2021/07/29 05:55:43;;;;;;;3.83;1.13;;;;;;;;;;4991800;28;20058;-42
2021/07/29 05:58:10;;;;;;;4.65;0.90;;;;;;;;;;4991264;28;20018;-43
2021/07/29 06:00:37;;;;;;;4.80;1.00;;;;;;;;;;4992612;28;20022;-43
2021/07/29 06:03:04;;;;;;;3.70;1.10;;;;;;;;;;4992877;28;20023;-42
2021/07/29 06:05:31;;;;;;;3.78;0.90;;;;;;;;;;4992830;28;20597;-42
2021/07/29 06:07:58;;;;;;;2.25;0.98;;;;;;;;;;4992993;28;20030;-41
2021/07/29 06:10:25;;;;;;;3.50;0.90;;;;;;;;;;4992531;28;20088;-44
2021/07/29 06:12:52;;;;;;;3.30;0.80;;;;;;;;;;4992758;28;20025;-43
2021/07/29 06:15:19;;;;;;;4.18;1.10;;;;;;;;;;4992618;28;20033;-43
2021/07/29 06:17:52;;;;;;;2.70;0.80;;;;;;;;;;4991817;28;20439;-42
2021/07/29 06:20:19;;;;;;;4.63;0.80;;;;;;;;;;4992586;28;20486;-46
2021/07/29 06:22:46;;;;;;;3.30;0.70;;;;;;;;;;4992623;28;20026;-43
2021/07/29 06:25:14;;;;;;;5.20;1.05;;;;;;;;;;4992352;28;20033;-43
2021/07/29 06:27:41;;;;;;;3.33;0.88;;;;;;;;;;4991298;28;20022;-42
2021/07/29 06:30:08;;;;;;;4.82;0.80;;;;;;;;;;4992333;28;20129;-44
2021/07/29 06:32:36;;;;;;;5.80;1.10;;;;;;;;;;4992563;28;20101;-43
2021/07/29 06:35:03;;;;;;;3.05;0.80;;;;;;;;;;4992175;28;20135;-44
2021/07/29 06:37:30;;;;;;;2.92;0.85;;;;;;;;;;4992581;28;20097;-42
2021/07/29 06:39:57;;;;;;;3.28;1.10;;;;;;;;;;4991455;28;20478;-43
2021/07/29 06:42:24;;;;;;;2.72;0.75;;;;;;;;;;4992241;28;20037;-44
2021/07/29 06:44:51;;;;;;;2.58;0.80;;;;;;;;;;4990910;28;20026;-42
2021/07/29 06:47:21;;;;;;;3.40;0.70;;;;;;;;;;4992551;28;20478;-42
2021/07/29 06:49:48;;;;;;;4.68;1.00;;;;;;;;;;4992248;28;20475;-42
2021/07/29 06:52:15;;;;;;;2.88;1.17;;;;;;;;;;4992196;28;20033;-43
2021/07/29 06:54:42;;;;;;;4.80;0.73;;;;;;;;;;4992355;28;20038;-42
2021/07/29 06:57:10;;;;;;;3.70;0.80;;;;;;;;;;4992182;28;20076;-42
2021/07/29 06:59:37;;;;;;;1.60;0.57;;;;;;;;;;4992134;28;20026;-43
2021/07/29 07:02:04;;;;;;;1.38;0.55;;;;;;;;;;4992391;28;20023;-42
2021/07/29 07:04:31;;;;;;;1.88;0.80;;;;;;;;;;4992204;28;20030;-42
2021/07/29 07:06:58;;;;;;;1.90;0.60;;;;;;;;;;4992074;28;20030;-43
2021/07/29 07:09:25;;;;;;;2.45;0.65;;;;;;;;;;4991891;28;20030;-42
2021/07/29 07:11:52;;;;;;;1.88;0.60;;;;;;;;;;4992068;28;20379;-41
2021/07/29 07:14:19;;;;;;;2.00;0.85;;;;;;;;;;4991863;28;20023;-42
2021/07/29 07:16:46;;;;;;;3.08;0.60;;;;;;;;;;4992098;28;20053;-44
2021/07/29 07:19:13;;;;;;;1.70;0.85;;;;;;;;;;4991753;28;20043;-44
2021/07/29 07:21:40;;;;;;;1.92;0.50;;;;;;;;;;4991904;28;20027;-44
2021/07/29 07:24:07;;;;;;;1.75;0.88;;;;;;;;;;4992120;28;20025;-43
2021/07/29 07:26:34;;;;;;;3.15;0.57;;;;;;;;;;4991826;28;20110;-42
2021/07/29 07:29:03;;;;;;;4.47;0.95;;;;;;;;;;4992351;28;20098;-43
2021/07/29 07:31:30;;;;;;;2.45;0.50;;;;;;;;;;4995622;28;20518;-43
2021/07/29 07:33:58;;;;;;;2.70;0.80;;;;;;;;;;4995438;28;20022;-42
2021/07/29 07:36:25;;;;;;;3.78;0.70;;;;;;;;;;4995267;28;20109;-41
2021/07/29 07:38:53;;;;;;;1.70;0.50;;;;;;;;;;4995673;28;20022;-42
2021/07/29 07:41:20;;;;;;;1.45;0.60;;;;;;;;;;4995543;28;20470;-42
2021/07/29 07:43:47;;;;;;;1.52;0.40;;;;;;;;;;4995385;28;20084;-46
2021/07/29 07:46:14;;;;;;;1.23;0.52;;;;;;;;;;4995462;28;20034;-53
2021/07/29 07:48:41;;;;;;;2.17;0.50;;;;;;;;;;4995532;28;20475;-44
2021/07/29 07:51:08;;;;;;;2.72;0.30;;;;;;;;;;4995145;28;20035;-45
2021/07/29 07:53:35;;;;;;;1.35;0.52;;;;;;;;;;4995130;28;20030;-44
2021/07/29 07:56:03;;;;;;;1.48;0.40;;;;;;;;;;4995188;28;20105;-44
2021/07/29 07:58:30;;;;;;;2.20;0.52;;;;;;;;;;4995164;28;20030;-47
2021/07/29 08:00:57;;;;;;;1.67;0.50;;;;;;;;;;4995001;28;20105;-47
2021/07/29 08:03:24;;;;;;;1.52;0.50;;;;;;;;;;4995226;28;20026;-47
2021/07/29 08:05:51;;;;;;;1.85;0.40;;;;;;;;;;4994688;28;20038;-45
2021/07/29 08:08:18;;;;;;;1.95;0.50;;;;;;;;;;4994929;28;20022;-47
2021/07/29 08:10:50;;;;;;;2.15;0.40;;;;;;;;;;4994863;28;20494;-43
2021/07/29 08:13:17;;;;;;;3.40;0.70;;;;;;;;;;4994839;28;20113;-45
2021/07/29 08:15:44;;;;;;;1.40;0.38;;;;;;;;;;4994808;28;20096;-43
2021/07/29 08:18:15;;;;;;;1.75;0.55;;;;;;;;;;4994832;28;20483;-44
2021/07/29 08:20:42;;;;;;;1.15;0.38;;;;;;;;;;4994838;28;20109;-44
2021/07/29 08:23:09;;;;;;;1.08;0.50;;;;;;;;;;4994635;28;20382;-44
2021/07/29 08:25:36;;;;;;;3.03;0.50;;;;;;;;;;4994570;28;20356;-50
2021/07/29 08:28:04;;;;;;;1.35;0.40;;;;;;;;;;4994759;28;20085;-43
2021/07/29 08:30:31;;;;;;;2.85;0.57;;;;;;;;;;4994469;28;20038;-44
2021/07/29 08:32:58;;;;;;;1.77;0.50;;;;;;;;;;4994661;28;20493;-44
2021/07/29 08:35:25;;;;;;;1.67;0.50;;;;;;;;;;4994139;28;20030;-47
2021/07/29 08:37:52;;;;;;;1.25;0.45;;;;;;;;;;4994401;28;20026;-44
2021/07/29 08:40:20;;;;;;;0.93;0.43;;;;;;;;;;4994108;28;20106;-45
2021/07/29 08:42:47;;;;;;;1.25;0.40;;;;;;;;;;4994080;28;20045;-41
2021/07/29 08:45:15;;;;;;;1.00;0.40;;;;;;;;;;4994243;28;20027;-42
2021/07/29 08:47:45;;;;;;;1.15;0.50;;;;;;;;;;4993238;28;20030;-42
2021/07/29 08:50:12;;;;;;;3.15;0.88;;;;;;;;;;4994240;28;20497;-45
2021/07/29 08:52:39;;;;;;;0.95;0.35;;;;;;;;;;4994100;28;20418;-45
2021/07/29 08:55:07;;;;;;;2.17;0.50;;;;;;;;;;4993890;28;20389;-43
2021/07/29 08:57:38;;;;;;;2.42;0.57;;;;;;;;;;4994070;28;20023;-43
2021/07/29 09:00:08;;;;;;;1.58;0.60;;;;;;;;;;4994073;28;20026;-44
2021/07/29 09:02:36;;;;;;;1.23;0.30;;;;;;;;;;4994136;28;20025;-43
2021/07/29 09:05:05;;;;;;;2.22;0.52;;;;;;;;;;4994193;28;20482;-43
2021/07/29 09:07:35;;;;;;;0.88;0.43;;;;;;;;;;4993888;28;20038;-44
2021/07/29 09:10:04;;;;;;;1.20;0.40;;;;;;;;;;4993849;28;20042;-44
2021/07/29 09:12:31;;;;;;;2.08;0.38;;;;;;;;;;4992446;28;20022;-45
2021/07/29 09:14:58;;;;;;;1.02;0.40;;;;;;;;;;4993578;28;20038;-43
2021/07/29 09:17:25;;;;;;;1.10;0.30;;;;;;;;;;4993393;28;20018;-44
2021/07/29 09:19:53;;;;;;;3.13;0.43;;;;;;;;;;4993734;28;20026;-43
2021/07/29 09:22:23;;;;;;;2.28;0.70;;;;;;;;;;4993443;28;20031;-43
2021/07/29 09:25:09;;;;;;;0.30;0.28;;;;;;;;;;4993440;28;20556;-43
2021/07/29 09:27:39;;;;;;;1.20;0.50;;;;;;;;;;4993580;28;20190;-42
2021/07/29 09:30:15;;;;;;;0.65;0.30;;;;;;;;;;4993454;28;20502;-43
2021/07/29 09:32:52;;;;;;;2.63;0.40;;;;;;;;;;4993315;28;20041;-44
2021/07/29 09:35:31;;;;;;;0.98;0.47;;;;;;;;;;4993434;28;20030;-42
2021/07/29 09:38:00;;;;;;;0.73;0.30;;;;;;;;;;4993619;28;20364;-42
2021/07/29 09:40:27;;;;;;;0.90;0.32;;;;;;;;;;4993372;28;20104;-42
2021/07/29 09:43:14;;;;;;;0.55;0.22;;;;;;;;;;4993247;28;20030;-42
2021/07/29 09:45:42;;;;;;;1.10;0.40;;;;;;;;;;4992938;28;20391;-43
2021/07/29 09:48:10;;;;;;;1.25;0.40;;;;;;;;;;4993171;28;20026;-42
2021/07/29 09:50:38;;;;;;;0.88;0.40;;;;;;;;;;4992946;28;20030;-42
2021/07/29 09:53:05;;;;;;;1.92;0.45;;;;;;;;;;4990748;28;20386;-43
2021/07/29 09:55:32;;;;;;;0.75;0.35;;;;;;;;;;4992915;28;20549;-43
2021/07/29 09:58:03;;;;;;;1.10;0.30;;;;;;;;;;4992473;28;20030;-45
2021/07/29 10:00:30;;;;;;;0.80;0.40;;;;;;;;;;4992230;28;20038;-43
2021/07/29 10:02:57;;;;;;;0.85;0.40;;;;;;;;;;4992960;28;20045;-42
2021/07/29 10:05:28;;;;;;;1.50;0.40;;;;;;;;;;4993097;28;20022;-46
2021/07/29 10:07:56;;;;;;;1.45;0.52;;;;;;;;;;4992683;28;20057;-45
2021/07/29 10:10:25;;;;;;;1.15;0.30;;;;;;;;;;4992723;28;20050;-44
2021/07/29 10:12:53;;;;;;;1.45;0.30;;;;;;;;;;4993079;28;20027;-43
2021/07/29 10:15:39;;;;;;;1.10;0.40;;;;;;;;;;4992588;28;20437;-44
2021/07/29 10:18:06;;;;;;;0.73;0.30;;;;;;;;;;5007422;28;20410;-43
2021/07/29 10:20:34;;;;;;;3.00;0.45;;;;;;;;;;4992591;28;20053;-44
2021/07/29 10:23:18;;;;;;;0.50;0.30;;;;;;;;;;4992554;28;20037;-44
2021/07/29 10:25:55;;;;;;;1.33;0.25;;;;;;;;;;4992350;28;20018;-44
2021/07/29 10:28:23;;;;;;;0.65;0.28;;;;;;;;;;4992691;28;20022;-47
2021/07/29 10:30:53;;;;;;;1.17;0.40;;;;;;;;;;4991999;28;20400;-43
2021/07/29 10:33:23;;;;;;;0.73;0.30;;;;;;;;;;4992121;28;20033;-44
2021/07/29 10:35:51;;;;;;;3.92;0.40;;;;;;;;;;4991804;28;20495;-44
2021/07/29 10:38:41;;;;;;;3.35;0.57;;;;;;;;;;4990172;28;20026;-43
2021/07/29 10:41:11;;;;;;;2.78;0.40;;;;;;;;;;4984339;28;20038;-42
2021/07/29 10:43:39;;;;;;;0.82;0.20;;;;;;;;;;4991880;28;20055;-43
2021/07/29 10:46:06;;;;;;;2.33;0.30;;;;;;;;;;4991843;28;20022;-43
2021/07/29 10:48:49;;;;;;;1.23;0.35;;;;;;;;;;4992247;28;20029;-44
2021/07/29 10:51:18;;;;;;;1.23;0.30;;;;;;;;;;4992531;28;20026;-45
2021/07/29 10:53:46;;;;;;;3.75;0.52;;;;;;;;;;4992079;28;20482;-44
2021/07/29 10:56:14;;;;;;;1.45;0.30;;;;;;;;;;4992319;28;20052;-43
2021/07/29 10:58:41;;;;;;;1.30;0.38;;;;;;;;;;4992334;28;20042;-44
2021/07/29 11:01:10;;;;;;;1.20;0.50;;;;;;;;;;4992081;28;20057;-45
2021/07/29 11:03:51;;;;;;;2.35;0.22;;;;;;;;;;4992305;28;20022;-44
2021/07/29 11:06:38;;;;;;;3.75;0.40;;;;;;;;;;4996252;28;20489;-44
2021/07/29 11:09:13;;;;;;;0.95;0.28;;;;;;;;;;4996088;28;20124;-44
2021/07/29 11:11:41;;;;;;;2.50;0.50;;;;;;;;;;4995798;28;20049;-45
2021/07/29 11:14:09;;;;;;;2.28;0.50;;;;;;;;;;4995960;28;20620;-45
2021/07/29 11:16:37;;;;;;;5.25;0.50;;;;;;;;;;4996080;28;20513;-47
2021/07/29 11:19:05;;;;;;;3.53;0.32;;;;;;;;;;4995478;28;20042;-43
2021/07/29 11:21:32;;;;;;;3.55;0.70;;;;;;;;;;4995933;28;20073;-43
2021/07/29 11:24:00;;;;;;;1.10;0.32;;;;;;;;;;4995924;28;20386;-44
2021/07/29 11:26:27;;;;;;;0.95;0.38;;;;;;;;;;4995857;28;20520;-43
2021/07/29 11:29:07;;;;;;;1.30;0.40;;;;;;;;;;4995693;28;20467;-44
2021/07/29 11:31:35;;;;;;;6.05;0.52;;;;;;;;;;4995728;28;20029;-46
2021/07/29 11:34:02;;;;;;;5.90;0.50;;;;;;;;;;4994924;28;20116;-46
2021/07/29 11:36:29;;;;;;;6.60;0.60;;;;;;;;;;4992850;28;20033;-46
2021/07/29 11:38:57;;;;;;;2.63;0.80;;;;;;;;;;4995057;28;20027;-44
2021/07/29 11:41:24;;;;;;;6.47;0.70;;;;;;;;;;4994854;28;20137;-44
2021/07/29 11:43:55;;;;;;;7.00;1.02;;;;;;;;;;4995144;28;20463;-45
2021/07/29 11:46:23;;;;;;;4.72;1.00;;;;;;;;;;4995555;28;20038;-45
2021/07/29 11:49:01;;;;;;;2.38;0.73;;;;;;;;;;4994966;28;20054;-44
2021/07/29 11:51:28;;;;;;;3.05;0.85;;;;;;;;;;4975504;28;20070;-44
2021/07/29 11:53:55;;;;;;;4.03;0.63;;;;;;;;;;4974970;28;20026;-44
2021/07/29 11:56:22;;;;;;;4.70;0.98;;;;;;;;;;4975999;28;20022;-44
2021/07/29 11:58:59;;;;;;;4.15;0.70;;;;;;;;;;4975531;28;20023;-44
2021/07/29 12:01:27;;;;;;;3.83;0.80;;;;;;;;;;4975657;28;20030;-43
2021/07/29 12:03:55;;;;;;;8.65;0.80;;;;;;;;;;4975562;28;20026;-43
2021/07/29 12:06:22;;;;;;;5.78;0.73;;;;;;;;;;4975831;28;20089;-43
2021/07/29 12:08:51;;;;;;;4.28;0.80;;;;;;;;;;4975453;28;20023;-43
2021/07/29 12:11:19;;;;;;;6.93;0.93;;;;;;;;;;4975507;28;20232;-43
2021/07/29 12:13:46;;;;;;;1.20;0.60;;;;;;;;;;4975567;28;20027;-45
2021/07/29 12:16:13;;;;;;;4.20;0.60;;;;;;;;;;4981635;28;20101;-44
2021/07/29 12:18:40;;;;;;;3.80;0.90;;;;;;;;;;4994296;28;20148;-44
2021/07/29 12:21:07;;;;;;;7.18;0.88;;;;;;;;;;4994926;28;20041;-44
2021/07/29 12:23:34;;;;;;;1.85;0.50;;;;;;;;;;4994705;28;20100;-44
2021/07/29 12:26:12;;;;;;;5.65;1.05;;;;;;;;;;4994510;28;20109;-44
2021/07/29 12:28:40;;;;;;;3.83;1.05;;;;;;;;;;4975352;28;20019;-43
2021/07/29 12:31:36;;;;;;;5.28;1.25;;;;;;;;;;4975138;28;20042;-43
2021/07/29 12:34:04;;;;;;;4.82;0.93;;;;;;;;;;4962806;28;20082;-44
2021/07/29 12:36:48;;;;;;;6.60;0.80;;;;;;;;;;4977671;28;20489;-44
2021/07/29 12:39:19;;;;;;;6.35;0.80;;;;;;;;;;4991385;28;20513;-47
2021/07/29 12:41:47;;;;;;;2.78;0.73;;;;;;;;;;4990784;28;20109;-43
2021/07/29 12:44:21;;;;;;;2.60;0.70;;;;;;;;;;5006946;28;20037;-45
2021/07/29 12:46:50;;;;;;;4.90;1.33;;;;;;;;;;5000713;28;20058;-44
2021/07/29 12:49:18;;;;;;;4.63;0.85;;;;;;;;;;4974368;28;20034;-49
2021/07/29 12:51:47;;;;;;;3.55;0.68;;;;;;;;;;4974811;28;20035;-50
2021/07/29 12:54:18;;;;;;;3.85;0.80;;;;;;;;;;4985152;28;20169;-48
2021/07/29 12:56:45;;;;;;;3.33;0.93;;;;;;;;;;4992848;28;20034;-45
2021/07/29 12:59:13;;;;;;;9.38;1.00;;;;;;;;;;4993139;28;20033;-42
2021/07/29 13:01:40;;;;;;;4.65;0.80;;;;;;;;;;4985654;28;20539;-48
2021/07/29 13:04:07;;;;;;;11.45;0.90;;;;;;;;;;4994051;28;20427;-45
2021/07/29 13:06:34;;;;;;;5.45;0.90;;;;;;;;;;4991506;28;20907;-41
2021/07/29 13:09:01;;;;;;;8.02;0.70;;;;;;;;;;4991189;28;20034;-47
2021/07/29 13:11:28;;;;;;;5.00;1.00;;;;;;;;;;4990007;28;20057;-46
2021/07/29 13:13:55;;;;;;;3.67;0.95;;;;;;;;;;4989941;28;20018;-42
2021/07/29 13:16:23;;;;;;;9.57;1.10;;;;;;;;;;4987540;28;20113;-45
2021/07/29 13:18:50;;;;;;;5.78;1.20;;;;;;;;;;4989640;28;20050;-46
2021/07/29 13:21:17;;;;;;;3.28;0.80;;;;;;;;;;4985874;28;20026;-44
2021/07/29 13:23:43;;;;;;;3.20;0.90;;;;;;;;;;4981652;28;20096;-45
2021/07/29 13:26:11;;;;;;;3.20;0.93;;;;;;;;;;4988606;28;20050;-46
2021/07/29 13:28:38;;;;;;;5.03;1.10;;;;;;;;;;4982926;28;20027;-45
2021/07/29 13:31:05;;;;;;;5.07;0.70;;;;;;;;;;4980046;28;20045;-47
2021/07/29 13:33:32;;;;;;;4.22;0.98;;;;;;;;;;4990460;28;20018;-46
2021/07/29 13:35:59;;;;;;;6.53;1.20;;;;;;;;;;4978994;28;20031;-44
2021/07/29 13:38:26;;;;;;;7.57;0.98;;;;;;;;;;4987038;28;20061;-46
2021/07/29 13:40:53;;;;;;;2.80;1.13;;;;;;;;;;4989278;28;20060;-44
2021/07/29 13:43:21;;;;;;;3.03;0.93;;;;;;;;;;4990514;28;20022;-45
2021/07/29 13:45:52;;;;;;;7.83;1.10;;;;;;;;;;4989561;28;20096;-44
2021/07/29 13:48:19;;;;;;;3.80;0.85;;;;;;;;;;4990829;28;20026;-45
2021/07/29 13:50:46;;;;;;;6.72;0.90;;;;;;;;;;4988360;28;20134;-44
2021/07/29 13:53:13;;;;;;;2.20;0.68;;;;;;;;;;4989996;28;20105;-44
2021/07/29 13:55:41;;;;;;;4.50;1.08;;;;;;;;;;4989584;28;20034;-43
2021/07/29 13:58:08;;;;;;;7.68;0.95;;;;;;;;;;4985936;28;20026;-46
2021/07/29 14:00:35;;;;;;;8.15;1.00;;;;;;;;;;4990378;28;20486;-44
2021/07/29 14:03:06;;;;;;;4.38;0.80;;;;;;;;;;4985076;28;20031;-47
2021/07/29 14:05:41;;;;;;;3.08;0.80;;;;;;;;;;4991260;28;20057;-45
2021/07/29 14:08:09;;;;;;;2.63;0.80;;;;;;;;;;4985719;28;20031;-45
2021/07/29 14:10:36;;;;;;;5.55;0.98;;;;;;;;;;4987997;28;20106;-43
2021/07/29 14:13:03;;;;;;;4.45;0.80;;;;;;;;;;4989338;28;20030;-44
2021/07/29 14:15:30;;;;;;;5.38;0.90;;;;;;;;;;4985221;28;20048;-44
2021/07/29 14:18:01;;;;;;;6.82;1.35;;;;;;;;;;4985269;28;20042;-45
2021/07/29 14:20:33;;;;;;;5.60;0.87;;;;;;;;;;4982078;28;20084;-43
2021/07/29 14:23:11;;;;;;;6.67;1.23;;;;;;;;;;4972352;28;20022;-43
2021/07/29 14:25:39;;;;;;;3.20;0.88;;;;;;;;;;4983775;28;20030;-43
2021/07/29 14:28:13;;;;;;;3.78;0.70;;;;;;;;;;4987236;28;20080;-45
2021/07/29 14:30:42;;;;;;;5.75;1.45;;;;;;;;;;4989715;28;20049;-43
2021/07/29 14:33:13;;;;;;;5.38;1.02;;;;;;;;;;4986942;28;20112;-44
2021/07/29 14:35:43;;;;;;;5.43;0.93;;;;;;;;;;4990686;28;20116;-46
2021/07/29 14:38:11;;;;;;;2.65;0.80;;;;;;;;;;4989221;28;20113;-45
2021/07/29 14:40:38;;;;;;;8.07;0.95;;;;;;;;;;4987003;28;20443;-44
2021/07/29 14:43:06;;;;;;;16.20;1.45;;;;;;;;;;4987058;28;20027;-44
2021/07/29 14:50:46;;;;;;;7.38;0.80;;;;;;;;;;4985407;28;20081;-45
2021/07/29 14:53:14;;;;;;;7.20;1.00;;;;;;;;;;5003304;28;20586;-44
2021/07/29 16:09:28;;;;;;;15.88;1.20;;;;;;;;;;4993737;28;20030;-43
2021/07/29 16:11:56;;;;;;;7.15;1.30;;;;;;;;;;4993996;28;20022;-46